createdAt,value
2023-05-08T00:02:14.872Z,6.35
2023-05-08T00:04:42.059Z,8.75
2023-05-08T00:07:09.470Z,7.30
2023-05-08T00:09:38.084Z,6.55
2023-05-08T00:12:05.827Z,6.55
2023-05-08T00:14:33.108Z,6.80
2023-05-08T00:17:00.492Z,7.43
2023-05-08T00:19:27.800Z,7.10
2023-05-08T00:21:55.047Z,7.05
2023-05-08T00:24:22.266Z,7.00
2023-05-08T00:26:49.328Z,6.93
2023-05-08T00:29:16.712Z,7.45
2023-05-08T00:31:44.134Z,8.18
2023-05-08T00:34:11.605Z,7.63
2023-05-08T00:36:38.860Z,7.53
2023-05-08T00:39:06.203Z,6.85
2023-05-08T00:41:33.477Z,5.95
2023-05-08T00:44:00.793Z,8.20
2023-05-08T00:46:28.338Z,5.75
2023-05-08T00:48:55.819Z,8.45
2023-05-08T00:51:23.647Z,18.15
2023-05-08T00:53:51.162Z,7.82
2023-05-08T00:56:19.476Z,7.60
2023-05-08T00:58:48.742Z,8.18
2023-05-08T01:01:16.704Z,7.80
2023-05-08T01:03:45.447Z,8.85
2023-05-08T01:06:12.965Z,6.78
2023-05-08T01:08:40.493Z,9.23
2023-05-08T01:11:22.547Z,6.47
2023-05-08T01:13:58.616Z,8.37
2023-05-08T01:16:57.065Z,6.32
2023-05-08T01:19:43.648Z,5.77
2023-05-08T01:22:32.530Z,6.60
2023-05-08T01:25:36.714Z,7.78
2023-05-08T01:28:29.284Z,6.75
2023-05-08T01:31:12.837Z,7.63
2023-05-08T01:33:51.996Z,7.05
2023-05-08T01:36:46.647Z,8.77
2023-05-08T01:39:24.245Z,6.93
2023-05-08T01:42:09.182Z,7.82
2023-05-08T01:44:42.053Z,6.67
2023-05-08T01:47:12.277Z,7.53
2023-05-08T01:49:42.780Z,7.60
2023-05-08T01:52:33.838Z,6.93
2023-05-08T01:55:13.312Z,7.57
2023-05-08T01:57:47.706Z,7.13
2023-05-08T02:00:17.996Z,6.67
2023-05-08T02:02:46.514Z,8.52
2023-05-08T02:05:15.623Z,6.33
2023-05-08T02:07:44.714Z,9.23
2023-05-08T02:10:14.575Z,9.25
2023-05-08T02:12:44.162Z,6.83
2023-05-08T02:15:14.106Z,10.37
2023-05-08T02:17:42.569Z,7.30
2023-05-08T02:20:15.447Z,8.38
2023-05-08T02:22:45.399Z,9.52
2023-05-08T02:25:14.925Z,10.70
2023-05-08T02:27:46.021Z,9.20
2023-05-08T02:30:17.285Z,7.68
2023-05-08T02:32:46.462Z,7.38
2023-05-08T02:35:15.829Z,8.13
2023-05-08T02:37:49.973Z,7.32
2023-05-08T02:40:18.519Z,8.27
2023-05-08T02:42:47.380Z,9.33
2023-05-08T02:45:15.177Z,9.02
2023-05-08T02:48:00.789Z,7.72
2023-05-08T02:50:50.043Z,9.68
2023-05-08T02:53:24.798Z,7.88
2023-05-08T02:55:59.576Z,7.38
2023-05-08T02:58:46.954Z,8.15
2023-05-08T03:01:46.357Z,7.40
2023-05-08T03:04:20.307Z,9.88
2023-05-08T03:06:48.830Z,9.25
2023-05-08T03:09:21.690Z,6.55
2023-05-08T03:11:54.337Z,6.65
2023-05-08T03:14:26.905Z,7.60
2023-05-08T03:16:56.302Z,5.90
2023-05-08T03:19:28.834Z,8.52
2023-05-08T03:21:58.604Z,5.57
2023-05-08T03:24:38.879Z,6.50
2023-05-08T03:27:07.907Z,8.55
2023-05-08T03:29:36.502Z,5.07
2023-05-08T03:32:04.519Z,5.63
2023-05-08T03:34:32.236Z,4.78
2023-05-08T03:36:59.696Z,5.13
2023-05-08T03:39:27.417Z,5.00
2023-05-08T03:41:56.955Z,8.05
2023-05-08T03:44:25.426Z,5.50
2023-05-08T03:46:56.076Z,6.30
2023-05-08T03:49:25.743Z,5.18
2023-05-08T03:51:56.067Z,5.85
2023-05-08T03:54:26.026Z,5.72
2023-05-08T03:56:55.028Z,6.07
2023-05-08T03:59:51.279Z,7.03
2023-05-08T04:02:26.479Z,6.82
2023-05-08T04:05:02.508Z,6.25
2023-05-08T04:07:35.679Z,6.45
2023-05-08T04:10:24.981Z,5.93
2023-05-08T04:13:11.300Z,7.93
2023-05-08T04:15:44.942Z,6.80
2023-05-08T04:18:17.348Z,6.82
2023-05-08T04:20:48.661Z,7.90
2023-05-08T04:23:20.328Z,8.25
2023-05-08T04:25:50.158Z,8.07
2023-05-08T04:28:18.050Z,7.10
2023-05-08T04:30:46.318Z,6.55
2023-05-08T04:33:15.891Z,7.40
2023-05-08T04:35:43.160Z,7.00
2023-05-08T04:38:10.420Z,6.50
2023-05-08T04:40:38.202Z,6.50
2023-05-08T04:43:05.453Z,7.03
2023-05-08T04:45:32.125Z,8.52
2023-05-08T04:47:59.373Z,6.78
2023-05-08T04:50:26.630Z,7.10
2023-05-08T04:52:53.934Z,9.52
2023-05-08T04:55:21.134Z,5.97
2023-05-08T04:57:48.466Z,6.80
2023-05-08T05:00:16.390Z,6.70
2023-05-08T05:02:43.734Z,7.57
2023-05-08T05:05:12.073Z,4.78
2023-05-08T05:07:39.585Z,7.03
2023-05-08T05:10:07.511Z,5.00
2023-05-08T05:12:34.735Z,4.90
2023-05-08T05:15:01.970Z,4.75
2023-05-08T05:17:31.561Z,6.05
2023-05-08T05:19:58.984Z,5.18
2023-05-08T05:22:26.289Z,5.70
2023-05-08T05:24:53.540Z,4.72
2023-05-08T05:27:21.439Z,3.83
2023-05-08T05:29:48.668Z,6.40
2023-05-08T05:32:15.908Z,3.55
2023-05-08T05:34:42.978Z,4.70
2023-05-08T05:37:10.218Z,4.30
2023-05-08T05:39:38.412Z,3.13
2023-05-08T05:42:05.744Z,3.63
2023-05-08T05:44:33.006Z,4.00
2023-05-08T05:47:00.329Z,3.15
2023-05-08T05:49:27.617Z,4.53
2023-05-08T05:51:55.018Z,7.03
2023-05-08T05:54:22.311Z,4.75
2023-05-08T05:56:49.506Z,2.63
2023-05-08T05:59:16.792Z,2.80
2023-05-08T06:01:44.022Z,3.45
2023-05-08T06:04:11.412Z,3.15
2023-05-08T06:06:38.700Z,3.65
2023-05-08T06:09:07.584Z,3.80
2023-05-08T06:11:34.836Z,2.92
2023-05-08T06:14:02.066Z,2.70
2023-05-08T06:16:30.985Z,2.92
2023-05-08T06:18:58.569Z,3.40
2023-05-08T06:21:29.284Z,3.70
2023-05-08T06:23:56.751Z,4.65
2023-05-08T06:26:23.663Z,3.80
2023-05-08T06:28:51.114Z,3.25
2023-05-08T06:31:18.488Z,5.00
2023-05-08T06:33:46.155Z,3.58
2023-05-08T06:36:13.640Z,6.03
2023-05-08T06:38:40.923Z,3.13
2023-05-08T06:41:08.227Z,2.30
2023-05-08T06:43:35.408Z,4.72
2023-05-08T06:46:02.659Z,2.47
2023-05-08T06:48:29.943Z,15.50
2023-05-08T06:50:57.329Z,2.78
2023-05-08T06:53:24.740Z,3.80
2023-05-08T06:55:52.345Z,2.88
2023-05-08T06:58:19.729Z,3.78
2023-05-08T07:00:47.330Z,2.13
2023-05-08T07:03:15.026Z,5.57
2023-05-08T07:05:42.464Z,3.38
2023-05-08T07:08:09.595Z,3.58
2023-05-08T07:10:36.803Z,2.17
2023-05-08T07:13:04.145Z,2.65
2023-05-08T07:15:34.172Z,1.90
2023-05-08T07:18:01.572Z,2.40
2023-05-08T07:20:28.993Z,3.67
2023-05-08T07:22:56.248Z,1.67
2023-05-08T07:25:23.621Z,1.77
2023-05-08T07:27:50.830Z,2.30
2023-05-08T07:30:18.109Z,3.30
2023-05-08T07:32:45.602Z,2.10
2023-05-08T07:35:13.435Z,3.30
2023-05-08T07:37:40.865Z,1.88
2023-05-08T07:40:09.145Z,3.83
2023-05-08T07:42:40.936Z,3.05
2023-05-08T07:45:09.967Z,2.88
2023-05-08T07:47:37.471Z,2.20
2023-05-08T07:50:05.158Z,4.40
2023-05-08T07:52:32.418Z,2.95
2023-05-08T07:54:59.771Z,2.63
2023-05-08T07:57:26.934Z,2.00
2023-05-08T07:59:54.107Z,2.50
2023-05-08T08:02:21.433Z,4.10
2023-05-08T08:04:49.960Z,2.70
2023-05-08T08:07:17.194Z,2.47
2023-05-08T08:09:44.665Z,2.00
2023-05-08T08:12:11.885Z,3.88
2023-05-08T08:14:39.197Z,3.88
2023-05-08T08:17:06.506Z,3.58
2023-05-08T08:19:33.263Z,1.88
2023-05-08T08:22:00.664Z,4.20
2023-05-08T08:24:29.678Z,3.03
2023-05-08T08:26:56.780Z,5.13
2023-05-08T08:29:24.354Z,2.22
2023-05-08T08:31:51.535Z,4.68
2023-05-08T08:34:19.064Z,4.32
2023-05-08T08:36:46.278Z,4.13
2023-05-08T08:39:15.235Z,2.22
2023-05-08T08:41:42.779Z,3.95
2023-05-08T08:44:09.988Z,2.17
2023-05-08T08:46:41.795Z,2.83
2023-05-08T08:49:10.811Z,2.05
2023-05-08T08:51:56.895Z,3.25
2023-05-08T08:54:25.180Z,1.85
2023-05-08T08:56:53.458Z,2.05
2023-05-08T08:59:23.161Z,2.17
2023-05-08T09:01:59.354Z,5.78
2023-05-08T09:04:27.878Z,3.97
2023-05-08T09:06:59.624Z,1.95
2023-05-08T09:09:29.273Z,2.10
2023-05-08T09:11:56.587Z,4.85
2023-05-08T09:14:26.277Z,3.35
2023-05-08T09:16:56.483Z,2.35
2023-05-08T09:19:27.104Z,5.03
2023-05-08T09:21:58.994Z,2.53
2023-05-08T09:24:30.170Z,2.80
2023-05-08T09:26:58.283Z,2.17
2023-05-08T09:29:25.449Z,1.65
2023-05-08T09:31:53.712Z,3.92
2023-05-08T09:34:33.618Z,5.13
2023-05-08T09:37:07.056Z,2.13
2023-05-08T09:39:35.535Z,2.75
2023-05-08T09:42:06.438Z,3.42
2023-05-08T09:44:48.164Z,2.35
2023-05-08T09:47:19.242Z,4.47
2023-05-08T09:50:04.088Z,3.10
2023-05-08T09:52:32.769Z,11.80
2023-05-08T09:55:08.809Z,10.75
2023-05-08T09:57:39.772Z,3.25
2023-05-08T10:00:13.524Z,4.50
2023-05-08T10:02:42.876Z,2.83
2023-05-08T10:05:36.166Z,1.42
2023-05-08T10:08:23.475Z,3.00
2023-05-08T10:10:51.009Z,2.17
2023-05-08T10:13:18.214Z,2.38
2023-05-08T10:15:46.233Z,5.25
2023-05-08T10:18:16.648Z,4.30
2023-05-08T10:20:48.287Z,2.78
2023-05-08T10:23:17.946Z,2.47
2023-05-08T10:25:54.753Z,3.63
2023-05-08T10:28:50.290Z,3.55
2023-05-08T10:31:19.019Z,8.90
2023-05-08T10:33:49.924Z,6.97
2023-05-08T10:36:17.910Z,2.97
2023-05-08T10:38:46.018Z,2.88
2023-05-08T10:41:14.304Z,3.58
2023-05-08T10:43:44.350Z,2.40
2023-05-08T10:46:50.416Z,4.82
2023-05-08T10:49:20.360Z,2.47
2023-05-08T10:52:08.182Z,1.73
2023-05-08T10:54:48.202Z,2.45
2023-05-08T10:57:16.074Z,1.77
2023-05-08T10:59:47.758Z,3.30
2023-05-08T11:02:18.555Z,2.35
2023-05-08T11:04:46.026Z,2.65
2023-05-08T11:07:13.257Z,3.20
2023-05-08T11:09:45.951Z,3.80
2023-05-08T11:12:31.099Z,6.82
2023-05-08T11:15:01.049Z,2.55
2023-05-08T11:17:29.371Z,2.22
2023-05-08T11:19:59.563Z,2.00
2023-05-08T11:22:29.856Z,2.00
2023-05-08T11:24:58.184Z,1.85
2023-05-08T11:27:51.601Z,4.15
2023-05-08T11:30:21.664Z,2.47
2023-05-08T11:33:04.446Z,3.15
2023-05-08T11:35:45.524Z,2.42
2023-05-08T11:38:44.791Z,12.45
2023-05-08T11:41:24.701Z,3.92
2023-05-08T11:44:09.777Z,2.17
2023-05-08T11:46:56.598Z,11.13
2023-05-08T11:49:29.717Z,9.05
2023-05-08T11:51:59.631Z,3.13
2023-05-08T11:54:30.415Z,3.00
2023-05-08T11:56:58.077Z,2.22
2023-05-08T11:59:25.331Z,2.22
2023-05-08T12:04:23.132Z,1.40
2023-05-08T12:06:51.938Z,1.98
2023-05-08T12:09:21.217Z,3.13
2023-05-08T12:11:57.527Z,3.60
2023-05-08T12:14:24.802Z,1.67
2023-05-08T12:16:52.076Z,2.40
2023-05-08T12:19:19.241Z,1.88
2023-05-08T12:21:49.788Z,3.15
2023-05-08T12:24:23.734Z,2.15
2023-05-08T12:26:55.603Z,6.25
2023-05-08T12:29:23.244Z,2.03
2023-05-08T12:31:50.799Z,4.30
2023-05-08T12:34:18.256Z,2.97
2023-05-08T12:36:46.053Z,3.28
2023-05-08T12:39:20.103Z,2.75
2023-05-08T12:41:52.362Z,3.05
2023-05-08T12:44:21.311Z,2.53
2023-05-08T12:46:54.382Z,2.15
2023-05-08T12:49:25.370Z,2.90
2023-05-08T12:51:53.327Z,1.33
2023-05-08T12:54:20.697Z,7.22
2023-05-08T12:56:50.597Z,2.63
2023-05-08T12:59:17.886Z,3.80
2023-05-08T13:01:51.734Z,2.25
2023-05-08T13:04:21.824Z,3.60
2023-05-08T13:06:57.713Z,5.03
2023-05-08T13:09:25.105Z,4.45
2023-05-08T13:11:52.325Z,2.88
2023-05-08T13:14:19.364Z,6.43
2023-05-08T13:16:48.491Z,3.53
2023-05-08T13:19:16.970Z,2.85
2023-05-08T13:21:48.526Z,3.80
2023-05-08T13:24:15.879Z,5.18
2023-05-08T13:26:43.391Z,2.05
2023-05-08T13:29:10.905Z,3.03
2023-05-08T13:31:38.186Z,2.40
2023-05-08T13:34:05.901Z,1.95
2023-05-08T13:36:33.356Z,1.70
2023-05-08T13:39:00.713Z,2.97
2023-05-08T13:41:27.872Z,1.77
2023-05-08T13:43:55.106Z,5.75
2023-05-08T13:46:22.424Z,4.18
2023-05-08T13:48:49.675Z,3.17
2023-05-08T13:51:16.928Z,2.60
2023-05-08T13:53:44.220Z,4.57
2023-05-08T13:56:11.677Z,1.95
2023-05-08T13:58:38.957Z,1.92
2023-05-08T14:01:21.848Z,1.83
2023-05-08T14:03:49.637Z,4.10
2023-05-08T14:06:16.964Z,7.15
2023-05-08T14:08:46.637Z,6.35
2023-05-08T14:11:15.079Z,3.58
2023-05-08T14:13:45.239Z,4.15
2023-05-08T14:16:14.767Z,6.70
2023-05-08T14:18:41.562Z,3.33
2023-05-08T14:21:08.814Z,3.83
2023-05-08T14:23:36.320Z,2.47
2023-05-08T14:26:03.603Z,3.53
2023-05-08T14:28:30.997Z,4.13
2023-05-08T14:30:58.287Z,2.08
2023-05-08T14:33:25.580Z,2.15
2023-05-08T14:35:52.772Z,4.13
2023-05-08T14:38:19.897Z,5.00
2023-05-08T14:40:50.481Z,6.43
2023-05-08T14:43:18.427Z,7.25
2023-05-08T14:45:45.699Z,4.05
2023-05-08T14:48:13.029Z,2.72
2023-05-08T14:50:40.409Z,2.63
2023-05-08T14:53:08.174Z,3.50
2023-05-08T14:55:35.673Z,2.88
2023-05-08T14:58:03.329Z,3.58
2023-05-08T15:00:30.739Z,6.93
2023-05-08T15:02:58.137Z,1.60
2023-05-08T15:05:25.953Z,1.70
2023-05-08T15:07:53.732Z,2.08
2023-05-08T15:10:21.277Z,2.63
2023-05-08T15:12:48.629Z,1.85
2023-05-08T15:15:16.258Z,4.18
2023-05-08T15:17:43.097Z,2.80
2023-05-08T15:20:10.757Z,3.80
2023-05-08T15:22:38.005Z,7.93
2023-05-08T15:25:06.133Z,4.00
2023-05-08T15:27:33.397Z,1.70
2023-05-08T15:30:00.669Z,5.70
2023-05-08T15:32:27.884Z,2.42
2023-05-08T15:34:54.674Z,2.20
2023-05-08T15:37:22.258Z,3.58
2023-05-08T15:39:50.676Z,3.13
2023-05-08T15:42:17.984Z,1.83
2023-05-08T15:47:15.449Z,3.22
2023-05-08T15:49:42.672Z,2.30
2023-05-08T15:52:10.357Z,7.82
2023-05-08T15:54:37.535Z,3.08
2023-05-08T15:57:04.760Z,2.70
2023-05-08T15:59:32.074Z,2.53
2023-05-08T16:01:59.384Z,2.85
2023-05-08T16:04:26.521Z,2.67
2023-05-08T16:06:53.320Z,2.28
2023-05-08T16:09:20.567Z,3.92
2023-05-08T16:11:48.561Z,3.70
2023-05-08T16:14:17.424Z,2.20
2023-05-08T16:16:44.286Z,2.10
2023-05-08T16:19:11.551Z,3.13
2023-05-08T16:21:39.078Z,3.15
2023-05-08T16:24:05.951Z,2.65
2023-05-08T16:26:33.145Z,4.53
2023-05-08T16:29:00.366Z,3.53
2023-05-08T16:31:27.733Z,2.72
2023-05-08T16:33:55.132Z,3.03
2023-05-08T16:36:22.404Z,4.30
2023-05-08T16:38:49.868Z,3.55
2023-05-08T16:41:17.863Z,9.02
2023-05-08T16:43:45.257Z,3.20
2023-05-08T16:46:12.631Z,4.63
2023-05-08T16:48:40.675Z,3.60
2023-05-08T16:51:08.184Z,4.72
2023-05-08T16:53:35.478Z,1.77
2023-05-08T16:56:02.861Z,1.67
2023-05-08T16:58:30.170Z,2.70
2023-05-08T17:00:57.516Z,3.78
2023-05-08T17:03:24.916Z,2.42
2023-05-08T17:05:51.932Z,1.60
2023-05-08T17:08:19.365Z,6.68
2023-05-08T17:10:46.027Z,1.70
2023-05-08T17:13:13.172Z,3.20
2023-05-08T17:15:40.524Z,1.98
2023-05-08T17:18:07.894Z,3.80
2023-05-08T17:20:41.197Z,7.45
2023-05-08T17:23:09.635Z,4.25
2023-05-08T17:25:36.954Z,2.58
2023-05-08T17:28:04.808Z,2.88
2023-05-08T17:30:32.076Z,5.85
2023-05-08T17:32:59.617Z,17.70
2023-05-08T17:35:26.905Z,19.23
2023-05-08T17:37:54.231Z,24.83
2023-05-08T17:40:21.502Z,20.83
2023-05-08T17:42:48.783Z,19.30
2023-05-08T17:45:16.090Z,35.33
2023-05-08T17:47:43.243Z,56.30
2023-05-08T17:50:11.888Z,104.18
2023-05-08T17:52:39.144Z,82.40
2023-05-08T17:55:06.903Z,55.88
2023-05-08T17:57:34.130Z,40.83
2023-05-08T18:00:01.707Z,61.13
2023-05-08T18:02:29.054Z,78.10
2023-05-08T18:04:56.332Z,69.40
2023-05-08T18:07:26.363Z,48.45
2023-05-08T18:09:53.658Z,21.85
2023-05-08T18:12:21.164Z,5.35
2023-05-08T18:14:49.064Z,4.18
2023-05-08T18:17:19.665Z,2.28
2023-05-08T18:19:47.013Z,3.75
2023-05-08T18:22:14.477Z,6.63
2023-05-08T18:24:41.671Z,10.98
2023-05-08T18:27:08.957Z,14.75
2023-05-08T18:29:36.268Z,10.55
2023-05-08T18:32:03.552Z,11.27
2023-05-08T18:34:32.343Z,18.77
2023-05-08T18:36:59.615Z,24.30
2023-05-08T18:39:26.871Z,32.45
2023-05-08T18:41:54.180Z,9.32
2023-05-08T18:44:21.293Z,8.88
2023-05-08T18:46:48.540Z,5.93
2023-05-08T18:49:15.758Z,8.52
2023-05-08T18:51:43.063Z,3.95
2023-05-08T18:54:10.169Z,4.93
2023-05-08T18:56:37.701Z,4.72
2023-05-08T18:59:04.662Z,5.20
2023-05-08T19:01:32.297Z,3.92
2023-05-08T19:03:59.477Z,4.75
2023-05-08T19:06:26.809Z,3.75
2023-05-08T19:08:54.165Z,4.60
2023-05-08T19:11:22.306Z,5.13
2023-05-08T19:13:50.812Z,5.78
2023-05-08T19:16:18.111Z,8.73
2023-05-08T19:18:45.348Z,7.43
2023-05-08T19:21:12.435Z,3.28
2023-05-08T19:23:39.683Z,2.72
2023-05-08T19:26:06.919Z,3.88
2023-05-08T19:28:35.046Z,3.22
2023-05-08T19:31:02.480Z,3.13
2023-05-08T19:33:29.864Z,6.47
2023-05-08T19:35:57.068Z,3.45
2023-05-08T19:38:24.433Z,5.25
2023-05-08T19:40:56.446Z,3.63
2023-05-08T19:43:25.682Z,3.08
2023-05-08T19:45:53.028Z,3.33
2023-05-08T19:48:20.655Z,3.92
2023-05-08T19:50:48.085Z,4.18
2023-05-08T19:53:15.355Z,3.45
2023-05-08T19:55:42.612Z,8.38
2023-05-08T19:58:09.814Z,18.65
2023-05-08T20:00:37.154Z,7.82
2023-05-08T20:03:04.264Z,4.35
2023-05-08T20:05:31.849Z,7.22
2023-05-08T20:07:59.099Z,5.35
2023-05-08T20:10:26.634Z,3.85
2023-05-08T20:12:53.890Z,4.63
2023-05-08T20:15:21.602Z,5.68
2023-05-08T20:17:49.041Z,4.15
2023-05-08T20:20:16.743Z,4.47
2023-05-08T20:22:44.084Z,6.60
2023-05-08T20:25:11.368Z,5.25
2023-05-08T20:27:38.519Z,5.25
2023-05-08T20:30:07.232Z,6.32
2023-05-08T20:32:33.985Z,5.10
2023-05-08T20:35:01.255Z,8.98
2023-05-08T20:37:28.488Z,10.02
2023-05-08T20:39:55.660Z,8.90
2023-05-08T20:42:22.966Z,10.35
2023-05-08T20:44:50.367Z,10.75
2023-05-08T20:47:17.704Z,8.30
2023-05-08T20:49:44.850Z,6.78
2023-05-08T20:52:12.220Z,8.15
2023-05-08T20:54:39.430Z,11.63
2023-05-08T20:57:06.786Z,7.65
2023-05-08T20:59:34.010Z,7.15
2023-05-08T21:02:01.289Z,5.13
2023-05-08T21:04:28.628Z,5.93
2023-05-08T21:06:55.473Z,5.18
2023-05-08T21:09:22.717Z,5.75
2023-05-08T21:11:49.985Z,8.52
2023-05-08T21:14:17.299Z,7.68
2023-05-08T21:16:44.517Z,5.93
2023-05-08T21:19:14.332Z,6.05
2023-05-08T21:21:41.731Z,9.68
2023-05-08T21:24:09.265Z,8.73
2023-05-08T21:26:36.700Z,5.88
2023-05-08T21:29:06.492Z,6.80
2023-05-08T21:31:36.049Z,7.53
2023-05-08T21:34:03.828Z,9.75
2023-05-08T21:36:32.591Z,7.60
2023-05-08T21:38:59.842Z,9.57
2023-05-08T21:41:29.151Z,7.72
2023-05-08T21:43:56.965Z,6.53
2023-05-08T21:46:24.221Z,7.03
2023-05-08T21:48:51.648Z,5.63
2023-05-08T21:51:18.931Z,6.55
2023-05-08T21:53:46.277Z,6.47
2023-05-08T21:56:13.658Z,7.57
2023-05-08T21:58:40.918Z,10.32
2023-05-08T22:01:08.173Z,12.20
2023-05-08T22:03:35.460Z,8.90
2023-05-08T22:06:02.984Z,10.43
2023-05-08T22:08:30.998Z,9.15
2023-05-08T22:10:58.269Z,6.53
2023-05-08T22:13:25.744Z,8.98
2023-05-08T22:15:53.188Z,6.10
2023-05-08T22:18:20.405Z,12.32
2023-05-08T22:20:47.671Z,11.40
2023-05-08T22:23:14.928Z,14.63
2023-05-08T22:25:42.142Z,10.57
2023-05-08T22:28:09.528Z,13.70
2023-05-08T22:30:36.808Z,16.05
2023-05-08T22:33:04.187Z,14.03
2023-05-08T22:35:31.519Z,12.00
2023-05-08T22:37:58.860Z,9.77
2023-05-08T22:40:27.063Z,10.52
2023-05-08T22:42:56.367Z,6.93
2023-05-08T22:45:24.063Z,7.67
2023-05-08T22:47:51.620Z,7.10
2023-05-08T22:50:19.447Z,7.03
2023-05-08T22:52:47.160Z,7.57
2023-05-08T22:55:15.932Z,6.03
2023-05-08T22:57:43.872Z,5.93
2023-05-08T23:00:11.908Z,7.43
2023-05-08T23:02:39.573Z,6.37
2023-05-08T23:05:07.756Z,6.90
2023-05-08T23:07:34.923Z,7.80
2023-05-08T23:10:02.121Z,8.05
2023-05-08T23:12:29.241Z,12.53
2023-05-08T23:14:56.509Z,6.30
2023-05-08T23:17:23.805Z,7.33
2023-05-08T23:19:51.134Z,8.80
2023-05-08T23:22:18.388Z,6.87
2023-05-08T23:24:45.692Z,3.50
2023-05-08T23:27:12.976Z,6.50
2023-05-08T23:29:40.216Z,4.47
2023-05-08T23:32:07.515Z,5.43
2023-05-08T23:34:34.901Z,5.95
2023-05-08T23:37:02.274Z,4.97
2023-05-08T23:39:29.666Z,6.40
2023-05-08T23:41:57.142Z,5.60
2023-05-08T23:44:24.290Z,5.22
2023-05-08T23:46:51.654Z,6.63
2023-05-08T23:49:18.794Z,7.20
2023-05-08T23:51:46.220Z,10.83
2023-05-08T23:54:14.554Z,8.13
2023-05-08T23:56:41.669Z,8.53
2023-05-08T23:59:08.884Z,8.23
